Pagina principale
METAR-TAF:

METAR-TAF

Aeroporti :

Aeroporto di Brindisi-Casale

Brindisi, Italia

latitudine: 40-39N, longitudine: 017-57E, altezza: 15 m

Osservazione

Il bollettino è stato emesso 27 minuti fa, alle 01:20 UTC
Vento 3 kt da ovest/sud-ovest
Temperature 7°C
Umidità 81%
Pressione 1021 hPa
Visibilità 10 km o più
nessuna nube inferiore a 1500 m e nessun cumulonembo

METAR: LIBR 240120Z 24003KT CAVOK 07/04 Q1021

Ora: 02:47 (01:47 UTC)

Previsione

Il bollettino è stato emesso 2 ore e 47 minuti fa, alle 23:00 UTC
Previsione valida dal 24 alle 00 UTC al 24 alle 24 UTC
Vento 6 kt da direzioni variabili
Visibilità 10 km o più
nessuna nube inferiore a 1500 m e nessun cumulonembo
Evoluzione graduale
dal 24 alle 09 UTC al 24 alle 11 UTC
Vento 10 kt da nord
Evoluzione graduale
dal 24 alle 21 UTC al 24 alle 23 UTC
Vento 5 kt da direzioni variabili

TAF: LIBR 232300Z 2400/2424 VRB06KT CAVOK BECMG 2409/2411 01010KT BECMG 2421/2423 VRB05KT

Osservazioni e previsioni meteorologiche di più di 4000 aeroporti (messaggi METAR e TAF).

Le stazioni disponibili sono rappresentate dai dischi gialli e rossi sulla carta.

Puntare il mouse per vedere il nome della stazione.

Clicca sopra per visualizzare le osservazioni e previsioni meteorologiche.

Per cambiare la mappa : fare clic sui pulsanti verdi con una croce nera per ingrandire, il pulsante verde con un trattino per diminuire, o sulla freccia verde per le mappe adiacenti.


METAR-TAF: